Time;durP1;ratioP1;P1;durP2;ratioP2;P2;SDS_P1;SDS_P2;PMS_P1;PMS_P2;Temp;Humidity;BMP_temperature;BMP_pressure;BME280_temperature;BME280_humidity;BME280_pressure;Samples;Min_cycle;Max_cycle;Signal;HPM_P1;HPM_P2
2023/12/08 00:02:25;;;;;;;15.32;13.70;;;1.80;99.90;;;;;;5004921;28;20050;-34
2023/12/08 00:04:50;;;;;;;17.60;16.00;;;1.80;99.90;;;;;;5005858;28;20053;-34
2023/12/08 00:07:16;;;;;;;15.27;13.82;;;1.80;99.90;;;;;;5004041;28;20049;-33
2023/12/08 00:09:42;;;;;;;14.77;13.38;;;1.80;99.90;;;;;;5006337;28;20061;-36
2023/12/08 00:12:08;;;;;;;18.20;16.52;;;1.80;99.90;;;;;;5003909;28;20054;-34
2023/12/08 00:14:33;;;;;;;17.48;15.80;;;1.80;99.90;;;;;;5003150;28;20546;-34
2023/12/08 00:16:59;;;;;;;16.15;14.38;;;1.80;99.90;;;;;;5005416;28;20500;-34
2023/12/08 00:19:25;;;;;;;17.63;15.93;;;1.80;99.90;;;;;;5004872;28;20045;-33
2023/12/08 00:21:50;;;;;;;17.33;15.63;;;1.80;99.90;;;;;;5006557;28;20056;-34
2023/12/08 00:24:16;;;;;;;17.13;15.15;;;1.80;99.90;;;;;;5006631;28;20049;-33
2023/12/08 00:26:42;;;;;;;17.58;14.68;;;1.80;99.90;;;;;;5005116;28;20058;-33
2023/12/08 00:29:08;;;;;;;16.50;14.88;;;1.80;99.90;;;;;;5006748;28;20053;-34
2023/12/08 00:31:33;;;;;;;15.50;13.90;;;1.80;99.90;;;;;;5004270;28;20132;-34
2023/12/08 00:33:59;;;;;;;17.73;16.02;;;1.80;99.90;;;;;;5004507;28;20137;-38
2023/12/08 00:36:25;;;;;;;18.30;16.50;;;1.80;99.90;;;;;;5004840;28;20125;-33
2023/12/08 00:38:51;;;;;;;17.15;15.45;;;1.80;99.90;;;;;;5003918;28;20053;-33
2023/12/08 00:41:16;;;;;;;15.32;13.82;;;1.80;99.90;;;;;;5003163;28;20053;-33
2023/12/08 00:43:42;;;;;;;16.00;14.23;;;1.80;99.90;;;;;;5006856;28;20050;-33
2023/12/08 00:46:09;;;;;;;17.02;15.35;;;1.80;99.90;;;;;;5003876;28;20049;-34
2023/12/08 00:48:35;;;;;;;14.68;13.18;;;1.80;99.90;;;;;;5005114;28;20053;-34
2023/12/08 00:51:00;;;;;;;15.82;14.18;;;1.80;99.90;;;;;;5004006;28;20053;-35
2023/12/08 00:53:26;;;;;;;16.30;14.75;;;1.80;99.90;;;;;;5003484;28;20084;-37
2023/12/08 00:55:52;;;;;;;17.40;15.65;;;1.80;99.90;;;;;;5005928;28;20057;-33
2023/12/08 00:58:17;;;;;;;16.05;13.50;;;1.80;99.90;;;;;;5003248;28;20060;-33
2023/12/08 01:00:44;;;;;;;16.88;14.95;;;1.80;99.90;;;;;;5007499;28;20045;-33
2023/12/08 01:03:10;;;;;;;16.02;14.43;;;1.80;99.90;;;;;;5004313;28;20050;-33
2023/12/08 01:05:36;;;;;;;16.48;14.45;;;1.80;99.90;;;;;;5005015;28;20057;-34
2023/12/08 01:08:01;;;;;;;14.95;12.60;;;1.80;99.90;;;;;;5002443;28;20049;-34
2023/12/08 01:10:27;;;;;;;15.73;14.18;;;1.80;99.90;;;;;;5003198;28;20140;-36
2023/12/08 01:12:52;;;;;;;16.98;15.18;;;1.80;99.90;;;;;;5005363;28;20054;-35
2023/12/08 01:15:18;;;;;;;15.15;13.55;;;1.80;99.90;;;;;;5005634;28;20548;-33
2023/12/08 01:17:44;;;;;;;20.02;15.30;;;1.80;99.90;;;;;;5007155;28;20057;-33
2023/12/08 01:20:10;;;;;;;15.32;13.73;;;1.80;99.90;;;;;;5009378;28;20491;-34
2023/12/08 01:22:35;;;;;;;15.95;14.25;;;1.80;99.90;;;;;;5004748;28;20121;-33
2023/12/08 01:25:01;;;;;;;16.00;14.35;;;1.80;99.90;;;;;;5007131;28;20054;-33
2023/12/08 01:27:27;;;;;;;15.38;13.73;;;1.80;99.90;;;;;;5006026;28;20054;-34
2023/12/08 01:29:53;;;;;;;15.85;13.00;;;1.80;99.90;;;;;;5022736;28;20050;-34
2023/12/08 01:32:18;;;;;;;15.15;13.02;;;1.80;99.90;;;;;;5003837;28;20053;-33
2023/12/08 01:34:44;;;;;;;15.48;13.30;;;1.80;99.90;;;;;;5015146;28;20053;-34
2023/12/08 01:37:10;;;;;;;14.65;12.90;;;1.80;99.90;;;;;;5002070;28;20798;-34
2023/12/08 01:39:35;;;;;;;14.43;12.85;;;1.80;99.90;;;;;;4999752;28;20073;-33
2023/12/08 01:42:02;;;;;;;16.05;14.40;;;1.80;99.90;;;;;;5005880;28;20056;-34
2023/12/08 01:44:28;;;;;;;16.45;14.38;;;1.80;99.90;;;;;;5005840;28;20603;-33
2023/12/08 01:46:53;;;;;;;16.33;14.60;;;1.80;99.90;;;;;;5005065;28;20136;-37
2023/12/08 01:49:20;;;;;;;17.35;14.07;;;1.80;99.90;;;;;;5005398;28;20054;-34
2023/12/08 01:51:46;;;;;;;15.38;13.77;;;1.80;99.90;;;;;;5004913;28;20054;-33
2023/12/08 01:54:13;;;;;;;15.13;13.38;;;1.80;99.90;;;;;;5004383;28;20058;-34
2023/12/08 01:56:40;;;;;;;17.45;13.43;;;1.80;99.90;;;;;;5005560;28;20415;-34
2023/12/08 01:59:07;;;;;;;16.25;13.00;;;1.80;99.90;;;;;;5005382;28;20053;-34
2023/12/08 02:01:33;;;;;;;16.27;12.60;;;1.80;99.90;;;;;;5003968;28;20140;-34
2023/12/08 02:03:59;;;;;;;14.50;12.90;;;1.80;99.90;;;;;;5004729;28;20078;-34
2023/12/08 02:06:25;;;;;;;16.85;13.32;;;1.80;99.90;;;;;;5015119;28;20089;-36
2023/12/08 02:08:51;;;;;;;17.05;14.23;;;1.80;99.90;;;;;;5015982;28;20050;-47
2023/12/08 02:11:17;;;;;;;15.70;12.73;;;1.80;99.90;;;;;;5010823;28;20429;-34
2023/12/08 02:13:44;;;;;;;19.35;13.73;;;1.80;99.90;;;;;;5011197;28;20075;-33
2023/12/08 02:16:35;;;;;;;17.50;14.55;;;1.80;99.90;;;;;;5017358;28;20057;-34
2023/12/08 02:19:03;;;;;;;15.60;13.98;;;1.80;99.90;;;;;;5003421;28;20519;-34
2023/12/08 02:21:29;;;;;;;14.82;13.25;;;1.80;99.90;;;;;;5005568;28;20078;-34
2023/12/08 02:23:54;;;;;;;15.63;13.43;;;1.80;99.90;;;;;;5002855;28;20056;-33
2023/12/08 02:26:20;;;;;;;13.90;12.07;;;1.80;99.90;;;;;;5006320;28;20049;-34
2023/12/08 02:28:47;;;;;;;17.58;13.00;;;1.80;99.90;;;;;;5005626;28;20492;-34
2023/12/08 02:31:18;;;;;;;14.68;12.75;;;1.80;99.90;;;;;;5006013;28;20100;-36
2023/12/08 02:33:45;;;;;;;17.60;13.25;;;1.90;99.90;;;;;;5008114;28;20049;-33
2023/12/08 02:36:17;;;;;;;18.90;14.27;;;1.90;99.90;;;;;;5009985;28;20050;-34
2023/12/08 02:38:45;;;;;;;17.42;14.13;;;1.90;99.90;;;;;;5003266;28;20068;-36
2023/12/08 02:41:10;;;;;;;17.25;14.73;;;1.80;99.90;;;;;;5011253;28;20132;-34
2023/12/08 02:43:36;;;;;;;16.80;15.00;;;1.80;99.90;;;;;;5011989;28;20141;-34
2023/12/08 02:46:02;;;;;;;18.08;15.80;;;1.80;99.90;;;;;;5007426;28;20137;-34
2023/12/08 02:48:27;;;;;;;18.38;15.90;;;1.80;99.90;;;;;;5007855;28;20141;-42
2023/12/08 02:50:53;;;;;;;18.52;16.63;;;1.70;99.90;;;;;;5010709;28;20050;-34
2023/12/08 02:53:19;;;;;;;19.60;17.65;;;1.70;99.90;;;;;;5007432;28;20053;-33
2023/12/08 02:55:44;;;;;;;20.45;18.45;;;1.70;99.90;;;;;;5005713;28;20070;-34
2023/12/08 02:58:10;;;;;;;19.75;17.75;;;1.60;99.90;;;;;;5010114;28;20042;-35
2023/12/08 03:00:35;;;;;;;21.67;18.70;;;1.60;99.90;;;;;;5008052;28;20052;-34
2023/12/08 03:03:01;;;;;;;19.10;17.10;;;1.50;99.90;;;;;;5005685;28;20046;-34
2023/12/08 03:05:27;;;;;;;20.17;18.23;;;1.50;99.90;;;;;;5009168;28;20415;-34
2023/12/08 03:07:52;;;;;;;21.02;18.15;;;1.50;99.90;;;;;;5002695;28;20053;-34
2023/12/08 03:10:19;;;;;;;22.50;16.80;;;1.40;99.90;;;;;;5013395;28;20100;-39
2023/12/08 03:12:45;;;;;;;17.85;15.88;;;1.40;99.90;;;;;;5011293;28;20069;-33
2023/12/08 03:15:10;;;;;;;20.13;16.20;;;1.40;99.90;;;;;;5005655;28;20046;-34
2023/12/08 03:17:36;;;;;;;19.20;16.40;;;1.40;99.90;;;;;;5009446;28;20488;-34
2023/12/08 03:20:02;;;;;;;18.77;16.85;;;1.40;99.90;;;;;;5006465;28;20551;-33
2023/12/08 03:22:28;;;;;;;20.63;16.38;;;1.40;99.90;;;;;;5008740;28;20058;-34
2023/12/08 03:24:53;;;;;;;19.48;15.82;;;1.30;99.90;;;;;;5008169;28;20554;-34
2023/12/08 03:27:19;;;;;;;21.58;17.92;;;1.30;99.90;;;;;;5007286;28;20492;-34
2023/12/08 03:29:45;;;;;;;19.58;16.55;;;1.30;99.90;;;;;;5008382;28;20046;-34
2023/12/08 03:32:10;;;;;;;19.25;16.30;;;1.30;99.90;;;;;;5015985;28;20062;-34
2023/12/08 03:34:37;;;;;;;23.20;18.50;;;1.30;99.90;;;;;;5009273;28;20061;-33
2023/12/08 03:37:03;;;;;;;20.63;17.77;;;1.30;99.90;;;;;;5008097;28;20140;-33
2023/12/08 03:39:28;;;;;;;20.80;18.00;;;1.30;99.90;;;;;;5007171;28;20149;-33
2023/12/08 03:41:54;;;;;;;24.58;19.67;;;1.30;99.90;;;;;;5013730;28;20465;-33
2023/12/08 03:44:19;;;;;;;20.83;18.63;;;1.30;99.90;;;;;;5011476;28;20552;-34
2023/12/08 03:46:45;;;;;;;22.02;17.65;;;1.30;99.90;;;;;;5011698;28;20053;-37
2023/12/08 03:49:11;;;;;;;22.38;18.02;;;1.30;99.90;;;;;;5009571;28;20128;-35
2023/12/08 03:51:36;;;;;;;21.00;17.23;;;1.20;99.90;;;;;;5006552;28;20073;-33
2023/12/08 03:54:02;;;;;;;20.88;17.25;;;1.20;99.90;;;;;;5006933;28;20050;-34
2023/12/08 03:56:28;;;;;;;20.33;18.35;;;1.30;99.90;;;;;;5017428;28;20466;-34
2023/12/08 03:58:54;;;;;;;19.13;16.67;;;1.30;99.90;;;;;;5009095;28;20436;-34
2023/12/08 04:01:20;;;;;;;22.23;17.77;;;1.20;99.90;;;;;;5005817;28;20080;-34
2023/12/08 04:03:47;;;;;;;20.85;16.13;;;1.20;99.90;;;;;;5010859;28;20077;-34
2023/12/08 04:06:12;;;;;;;20.52;16.25;;;1.30;99.90;;;;;;5009380;28;20068;-33
2023/12/08 04:08:38;;;;;;;19.52;16.45;;;1.20;99.90;;;;;;5013115;28;20049;-34
2023/12/08 04:11:04;;;;;;;18.55;15.65;;;1.30;99.90;;;;;;5012341;28;20519;-41
2023/12/08 04:13:30;;;;;;;21.83;15.30;;;1.30;99.90;;;;;;5004709;28;20078;-34
2023/12/08 04:15:56;;;;;;;21.17;17.40;;;1.30;99.90;;;;;;5006940;28;20176;-34
2023/12/08 04:18:22;;;;;;;21.40;14.82;;;1.30;99.90;;;;;;5008266;28;20129;-33
2023/12/08 04:20:47;;;;;;;18.38;15.98;;;1.20;99.90;;;;;;5006642;28;20092;-34
2023/12/08 04:23:13;;;;;;;21.10;16.17;;;1.20;99.90;;;;;;5009453;28;20062;-33
2023/12/08 04:25:39;;;;;;;21.13;16.15;;;1.20;99.90;;;;;;5007086;28;20499;-33
2023/12/08 04:28:04;;;;;;;20.80;16.83;;;1.20;99.90;;;;;;5009019;28;20050;-34
2023/12/08 04:30:31;;;;;;;22.00;16.90;;;1.20;99.90;;;;;;5014521;28;20049;-34
2023/12/08 04:32:57;;;;;;;19.85;16.20;;;1.20;99.90;;;;;;5004520;28;20583;-34
2023/12/08 04:35:22;;;;;;;20.80;16.63;;;1.20;99.90;;;;;;5007467;28;20132;-34
2023/12/08 04:37:50;;;;;;;18.67;14.63;;;1.20;99.90;;;;;;5009116;28;20041;-34
2023/12/08 04:40:16;;;;;;;21.55;15.80;;;1.20;99.90;;;;;;5006716;28;20147;-38
2023/12/08 04:42:42;;;;;;;21.05;14.90;;;1.20;99.90;;;;;;5004037;28;20046;-34
2023/12/08 04:45:09;;;;;;;19.63;14.85;;;1.20;99.90;;;;;;5003358;28;20053;-34
2023/12/08 04:47:35;;;;;;;21.05;15.30;;;1.20;99.90;;;;;;5011054;28;20109;-34
2023/12/08 04:50:02;;;;;;;24.15;16.63;;;1.20;99.90;;;;;;5008947;28;20046;-34
2023/12/08 04:52:28;;;;;;;21.92;16.35;;;1.20;99.90;;;;;;5004670;28;20046;-39
2023/12/08 04:54:54;;;;;;;20.70;16.13;;;1.20;99.90;;;;;;5006294;28;20136;-34
2023/12/08 04:57:20;;;;;;;20.88;16.25;;;1.20;99.90;;;;;;5009323;28;20056;-34
2023/12/08 04:59:45;;;;;;;22.60;16.83;;;1.20;99.90;;;;;;5008836;28;20057;-34
2023/12/08 05:02:11;;;;;;;22.85;17.33;;;1.20;99.90;;;;;;5004521;28;20054;-34
2023/12/08 05:04:37;;;;;;;19.80;15.63;;;1.20;99.90;;;;;;5003656;28;20041;-33
2023/12/08 05:07:03;;;;;;;25.35;15.70;;;1.20;99.90;;;;;;5007319;28;20144;-34
2023/12/08 05:09:29;;;;;;;22.27;17.75;;;1.20;99.90;;;;;;5008851;28;20046;-34
2023/12/08 05:11:54;;;;;;;23.42;16.42;;;1.20;99.90;;;;;;5007485;28;20405;-34
2023/12/08 05:14:20;;;;;;;22.50;16.27;;;1.20;99.90;;;;;;5007015;28;20061;-34
2023/12/08 05:16:46;;;;;;;20.00;14.25;;;1.20;99.90;;;;;;5004953;28;20528;-38
2023/12/08 05:19:12;;;;;;;21.13;14.98;;;1.20;99.90;;;;;;5004825;28;20053;-34
2023/12/08 05:21:37;;;;;;;22.17;17.42;;;1.10;99.90;;;;;;5003627;28;20107;-34
2023/12/08 05:24:03;;;;;;;21.67;16.00;;;1.10;99.90;;;;;;5015146;28;20038;-34
2023/12/08 05:26:30;;;;;;;25.00;16.08;;;1.20;99.90;;;;;;5008531;28;20058;-34
2023/12/08 05:28:56;;;;;;;24.48;16.85;;;1.20;99.90;;;;;;5007405;28;20050;-34
2023/12/08 05:31:22;;;;;;;20.48;16.02;;;1.10;99.90;;;;;;5001366;28;20435;-34
2023/12/08 05:33:48;;;;;;;22.67;16.23;;;1.10;99.90;;;;;;4996074;28;20050;-34
2023/12/08 05:36:14;;;;;;;20.58;15.68;;;1.20;99.90;;;;;;5006594;28;20129;-39
2023/12/08 05:38:39;;;;;;;24.70;16.50;;;1.10;99.90;;;;;;5007002;28;20539;-34
2023/12/08 05:41:05;;;;;;;21.85;14.73;;;1.10;99.90;;;;;;5007237;28;20136;-33
2023/12/08 05:43:32;;;;;;;23.42;16.95;;;1.10;99.90;;;;;;5007765;28;20491;-34
2023/12/08 05:45:57;;;;;;;21.35;15.45;;;1.20;99.90;;;;;;5003427;28;20057;-34
2023/12/08 05:48:23;;;;;;;23.02;17.13;;;1.20;99.90;;;;;;5014618;28;20103;-33
2023/12/08 05:50:49;;;;;;;21.00;15.63;;;1.10;99.90;;;;;;5006408;28;20045;-35
2023/12/08 05:53:14;;;;;;;22.05;16.38;;;1.10;99.90;;;;;;5006664;28;20053;-34
2023/12/08 05:55:40;;;;;;;25.42;18.35;;;1.10;99.90;;;;;;4996719;28;20061;-34
2023/12/08 05:58:06;;;;;;;23.98;16.90;;;1.10;99.90;;;;;;5006367;28;20060;-33
2023/12/08 06:00:33;;;;;;;26.02;16.95;;;1.10;99.90;;;;;;5004926;28;20131;-33
2023/12/08 06:02:58;;;;;;;23.23;18.60;;;1.10;99.90;;;;;;5005077;28;20049;-34
2023/12/08 06:05:24;;;;;;;25.52;18.00;;;1.10;99.90;;;;;;5008186;28;20080;-33
2023/12/08 06:07:50;;;;;;;24.55;17.80;;;1.10;99.90;;;;;;5004085;28;20054;-34
2023/12/08 06:10:16;;;;;;;25.88;18.77;;;1.10;99.90;;;;;;5005906;28;20469;-43
2023/12/08 06:12:42;;;;;;;26.80;18.90;;;1.10;99.90;;;;;;5005108;28;20045;-34
2023/12/08 06:15:09;;;;;;;25.05;20.38;;;1.00;99.90;;;;;;5006380;28;20400;-33
2023/12/08 06:17:36;;;;;;;26.92;20.63;;;1.10;99.90;;;;;;5005575;28;20118;-39
2023/12/08 06:20:04;;;;;;;24.52;18.80;;;1.10;99.90;;;;;;5006637;28;20061;-33
2023/12/08 06:22:30;;;;;;;24.95;19.25;;;1.00;99.90;;;;;;5006277;28;20077;-34
2023/12/08 06:24:56;;;;;;;25.60;20.40;;;1.00;99.90;;;;;;5007039;28;20064;-34
2023/12/08 06:27:22;;;;;;;25.55;18.98;;;1.00;99.90;;;;;;5010070;28;20062;-34
2023/12/08 06:29:50;;;;;;;25.98;22.17;;;1.10;99.90;;;;;;5007746;28;20196;-34
2023/12/08 06:32:18;;;;;;;24.30;21.23;;;1.00;99.90;;;;;;5005283;28;20520;-35
2023/12/08 06:34:46;;;;;;;25.45;20.67;;;1.00;99.90;;;;;;5011095;28;20064;-34
2023/12/08 06:37:12;;;;;;;26.05;20.42;;;1.00;99.90;;;;;;5009833;28;20120;-34
2023/12/08 06:39:39;;;;;;;27.27;20.30;;;1.00;99.90;;;;;;5009647;28;20058;-34
2023/12/08 06:42:05;;;;;;;28.42;19.45;;;1.00;99.90;;;;;;5009773;28;20514;-34
2023/12/08 06:44:31;;;;;;;24.83;19.38;;;1.00;99.90;;;;;;5017097;28;20111;-34
2023/12/08 06:46:57;;;;;;;26.90;19.63;;;1.00;99.90;;;;;;5010838;28;20763;-35
2023/12/08 06:49:22;;;;;;;23.95;19.85;;;1.10;99.90;;;;;;5005382;28;20066;-34
2023/12/08 06:51:48;;;;;;;23.50;18.20;;;1.10;99.90;;;;;;5006743;28;20045;-34
2023/12/08 06:54:14;;;;;;;23.90;21.00;;;1.10;99.90;;;;;;5016518;28;20052;-34
2023/12/08 06:56:41;;;;;;;26.45;20.35;;;1.10;99.90;;;;;;5015154;28;20585;-33
2023/12/08 06:59:08;;;;;;;28.85;21.25;;;1.10;99.90;;;;;;5018076;28;20109;-34
2023/12/08 07:01:34;;;;;;;25.52;22.23;;;1.10;99.90;;;;;;5008454;28;20499;-34
2023/12/08 07:04:00;;;;;;;25.65;21.48;;;1.10;99.90;;;;;;5007382;28;20064;-35
2023/12/08 07:06:25;;;;;;;23.02;19.50;;;1.10;99.90;;;;;;5013549;28;20088;-34
2023/12/08 07:08:51;;;;;;;23.95;19.90;;;1.10;99.90;;;;;;5008733;28;20058;-38
2023/12/08 07:11:17;;;;;;;27.67;20.20;;;1.10;99.90;;;;;;5002970;28;21509;-38
2023/12/08 07:13:42;;;;;;;24.67;19.70;;;1.20;99.90;;;;;;5004601;28;20154;-34
2023/12/08 07:16:09;;;;;;;25.40;17.65;;;1.10;99.90;;;;;;5002472;28;20123;-34
2023/12/08 07:18:37;;;;;;;25.90;18.08;;;1.10;99.90;;;;;;5020473;28;20055;-34
2023/12/08 07:21:06;;;;;;;26.05;20.38;;;1.20;99.90;;;;;;5003046;28;20526;-34
2023/12/08 07:23:33;;;;;;;25.38;20.95;;;1.20;99.90;;;;;;5008809;28;20046;-34
2023/12/08 07:25:59;;;;;;;27.45;21.75;;;1.20;99.90;;;;;;5008972;28;20550;-34
2023/12/08 07:28:25;;;;;;;22.48;17.85;;;1.20;99.90;;;;;;5005670;28;20132;-34
2023/12/08 07:30:50;;;;;;;26.30;19.30;;;1.20;99.90;;;;;;5009973;28;20137;-34
2023/12/08 07:33:16;;;;;;;26.33;19.33;;;1.20;99.90;;;;;;5012332;28;20065;-35
2023/12/08 07:35:42;;;;;;;26.90;19.90;;;1.20;99.90;;;;;;5004653;28;20054;-34
2023/12/08 07:38:07;;;;;;;24.17;17.95;;;1.30;99.90;;;;;;5010408;28;20149;-34
2023/12/08 07:40:33;;;;;;;24.98;18.10;;;1.20;99.90;;;;;;5003689;28;20665;-34
2023/12/08 07:42:59;;;;;;;27.27;19.70;;;1.30;99.90;;;;;;5007641;28;20046;-34
2023/12/08 07:45:25;;;;;;;22.70;17.63;;;1.20;99.90;;;;;;5010945;28;20084;-34
2023/12/08 07:47:51;;;;;;;24.17;18.98;;;1.30;99.90;;;;;;5010004;28;20543;-41
2023/12/08 07:50:17;;;;;;;23.30;18.13;;;1.30;99.90;;;;;;5012083;28;20056;-34
2023/12/08 07:52:42;;;;;;;24.98;18.00;;;1.20;99.90;;;;;;5009937;28;20061;-34
2023/12/08 07:55:09;;;;;;;26.90;20.55;;;1.30;99.90;;;;;;5008375;28;20103;-34
2023/12/08 07:57:34;;;;;;;23.70;18.20;;;1.20;99.90;;;;;;5001585;28;20595;-34
2023/12/08 08:00:00;;;;;;;24.75;18.27;;;1.30;99.90;;;;;;5011038;28;20069;-34
2023/12/08 08:02:26;;;;;;;23.05;17.85;;;1.20;99.90;;;;;;5008463;28;20467;-34
2023/12/08 08:04:52;;;;;;;24.60;18.50;;;1.20;99.90;;;;;;5009102;28;20104;-37
2023/12/08 08:07:18;;;;;;;24.98;17.92;;;1.20;99.90;;;;;;5005856;28;20092;-34
2023/12/08 08:09:43;;;;;;;23.38;17.40;;;1.20;99.90;;;;;;5003509;28;20049;-34
2023/12/08 08:12:09;;;;;;;28.48;20.60;;;1.20;99.90;;;;;;5009206;28;20317;-34
2023/12/08 08:14:35;;;;;;;25.30;18.70;;;1.30;99.90;;;;;;5007050;28;20145;-34
2023/12/08 08:17:04;;;;;;;24.48;17.88;;;1.30;99.90;;;;;;5008455;28;20088;-34
2023/12/08 08:19:30;;;;;;;25.08;18.70;;;1.30;99.90;;;;;;5007285;28;20504;-34
2023/12/08 08:21:55;;;;;;;27.42;18.95;;;1.30;99.90;;;;;;5012843;28;20104;-34
2023/12/08 08:24:21;;;;;;;24.92;18.15;;;1.30;99.90;;;;;;5004729;28;20080;-34
2023/12/08 08:26:47;;;;;;;23.65;16.05;;;1.30;99.90;;;;;;5009001;28;20113;-34
2023/12/08 08:29:13;;;;;;;27.75;18.20;;;1.40;99.90;;;;;;5006761;28;20050;-34
2023/12/08 08:31:39;;;;;;;25.40;16.75;;;1.40;99.90;;;;;;5002329;28;20054;-34
2023/12/08 08:34:05;;;;;;;26.42;17.08;;;1.40;99.90;;;;;;5005889;28;20053;-34
2023/12/08 08:36:31;;;;;;;24.90;16.15;;;1.40;99.90;;;;;;5004773;28;20054;-34
2023/12/08 08:38:57;;;;;;;24.27;15.80;;;1.40;99.90;;;;;;5004842;28;20054;-34
2023/12/08 08:41:23;;;;;;;21.77;13.85;;;1.40;99.90;;;;;;5007396;28;20046;-38
2023/12/08 08:43:50;;;;;;;26.95;16.17;;;1.50;99.90;;;;;;5007861;28;20054;-34
2023/12/08 08:46:17;;;;;;;24.75;15.75;;;1.50;99.90;;;;;;5005311;28;20058;-34
2023/12/08 08:48:43;;;;;;;27.83;16.80;;;1.50;99.90;;;;;;5007762;28;20058;-35
2023/12/08 08:51:09;;;;;;;26.83;16.13;;;1.50;99.90;;;;;;5008427;28;20551;-35
2023/12/08 08:53:35;;;;;;;26.73;15.27;;;1.50;99.90;;;;;;5013003;28;20197;-39
2023/12/08 08:56:01;;;;;;;25.85;15.57;;;1.50;99.90;;;;;;5009140;28;20529;-34
2023/12/08 08:58:28;;;;;;;26.00;15.52;;;1.50;99.90;;;;;;5007933;28;20085;-34
2023/12/08 09:00:54;;;;;;;25.17;14.85;;;1.60;99.90;;;;;;5012310;28;20045;-34
2023/12/08 09:03:20;;;;;;;27.05;15.50;;;1.60;99.90;;;;;;5001105;28;21289;-34
2023/12/08 09:05:46;;;;;;;30.13;15.88;;;1.60;99.90;;;;;;5004603;28;20054;-34
2023/12/08 09:08:12;;;;;;;31.48;16.33;;;1.60;99.90;;;;;;5007485;28;20788;-34
2023/12/08 09:10:40;;;;;;;28.73;16.40;;;1.60;99.90;;;;;;5012552;28;20064;-34
2023/12/08 09:13:05;;;;;;;30.73;15.52;;;1.60;99.90;;;;;;5010675;28;20081;-34
2023/12/08 09:15:31;;;;;;;28.13;16.63;;;1.70;99.90;;;;;;5005629;28;20460;-34
2023/12/08 09:17:57;;;;;;;25.98;15.35;;;1.70;99.90;;;;;;5007848;28;20427;-34
2023/12/08 09:20:23;;;;;;;25.23;14.90;;;1.70;99.90;;;;;;5005095;28;20141;-34
2023/12/08 09:22:50;;;;;;;28.35;16.42;;;1.70;99.90;;;;;;5006092;28;20053;-34
2023/12/08 09:25:17;;;;;;;31.15;17.60;;;1.70;99.90;;;;;;5007304;28;20053;-34
2023/12/08 09:27:44;;;;;;;28.30;16.45;;;1.70;99.90;;;;;;5011147;28;20149;-34
2023/12/08 09:30:10;;;;;;;27.05;16.73;;;1.80;99.90;;;;;;5004888;28;20050;-34
2023/12/08 09:32:36;;;;;;;33.22;16.38;;;1.80;99.90;;;;;;5004552;28;20078;-37
2023/12/08 09:35:02;;;;;;;31.83;15.60;;;1.80;99.90;;;;;;5002663;28;20626;-34
2023/12/08 09:37:27;;;;;;;29.30;16.65;;;1.80;99.90;;;;;;5006289;28;20393;-36
2023/12/08 09:39:53;;;;;;;29.15;16.65;;;1.80;99.90;;;;;;5006922;28;20103;-34
2023/12/08 09:42:28;;;;;;;34.30;17.20;;;1.80;99.90;;;;;;5007964;28;20077;-35
2023/12/08 09:44:54;;;;;;;30.65;16.55;;;1.90;99.90;;;;;;5004650;28;20054;-35
2023/12/08 09:47:22;;;;;;;31.45;16.83;;;1.90;99.90;;;;;;5005772;28;20050;-35
2023/12/08 09:49:49;;;;;;;29.90;17.30;;;1.90;99.90;;;;;;5008407;28;20538;-35
2023/12/08 09:52:15;;;;;;;29.88;17.17;;;1.90;99.90;;;;;;5004572;28;20054;-36
2023/12/08 09:54:43;;;;;;;38.53;18.58;;;1.90;99.90;;;;;;5003385;28;20054;-35
2023/12/08 09:57:09;;;;;;;34.97;18.20;;;1.90;99.90;;;;;;5005900;28;21273;-36
2023/12/08 09:59:37;;;;;;;34.30;17.00;;;1.90;99.90;;;;;;5005321;28;20049;-34
2023/12/08 10:02:03;;;;;;;37.25;17.90;;;2.00;99.90;;;;;;5006703;28;20054;-34
2023/12/08 10:04:29;;;;;;;37.35;18.00;;;1.90;99.90;;;;;;5007343;28;20037;-35
2023/12/08 10:07:03;;;;;;;36.45;18.95;;;2.00;99.90;;;;;;5010116;28;20115;-34
2023/12/08 10:09:30;;;;;;;38.20;18.63;;;2.00;99.90;;;;;;5007665;28;20057;-35
2023/12/08 10:11:56;;;;;;;39.10;19.23;;;2.00;99.90;;;;;;5010426;28;20049;-35
2023/12/08 10:14:23;;;;;;;46.88;20.60;;;2.00;99.90;;;;;;5005370;28;20045;-35
2023/12/08 10:16:49;;;;;;;44.15;20.25;;;2.00;99.90;;;;;;5015334;28;20045;-33
2023/12/08 10:19:20;;;;;;;44.13;20.35;;;2.00;99.90;;;;;;5008196;28;20524;-35
2023/12/08 10:22:01;;;;;;;46.00;19.27;;;2.10;99.90;;;;;;5008549;28;20050;-45
2023/12/08 10:24:30;;;;;;;41.80;20.30;;;2.10;99.90;;;;;;5008803;28;20057;-35
2023/12/08 10:26:59;;;;;;;45.30;20.30;;;2.20;99.90;;;;;;5011104;28;20172;-38
2023/12/08 10:29:32;;;;;;;41.75;20.00;;;2.20;99.90;;;;;;5005181;28;20084;-38
2023/12/08 10:31:58;;;;;;;45.50;20.70;;;2.20;99.90;;;;;;5001895;28;20054;-34
2023/12/08 10:34:25;;;;;;;47.58;20.48;;;2.20;99.90;;;;;;5011701;28;20049;-35
2023/12/08 10:36:52;;;;;;;51.13;22.50;;;2.20;99.90;;;;;;5009052;28;20046;-34
2023/12/08 10:39:18;;;;;;;51.80;21.13;;;2.20;99.90;;;;;;5009266;28;20064;-33
2023/12/08 10:41:44;;;;;;;51.63;21.50;;;2.30;99.90;;;;;;5008456;28;20053;-33
2023/12/08 10:44:11;;;;;;;45.40;21.17;;;2.30;99.90;;;;;;5010028;28;20049;-34
2023/12/08 10:46:37;;;;;;;53.03;21.35;;;2.30;99.90;;;;;;5010644;28;20140;-33
2023/12/08 10:49:03;;;;;;;53.03;22.98;;;2.30;99.90;;;;;;5011266;28;20144;-33
2023/12/08 10:51:30;;;;;;;53.97;23.20;;;2.40;99.90;;;;;;5010656;28;20077;-33
2023/12/08 10:53:57;;;;;;;47.92;23.20;;;2.40;99.90;;;;;;5005141;28;20066;-33
2023/12/08 10:56:23;;;;;;;59.97;22.23;;;2.50;99.90;;;;;;5010277;28;20149;-33
2023/12/08 10:58:56;;;;;;;54.88;23.08;;;2.50;99.90;;;;;;5008285;28;20466;-34
2023/12/08 11:01:23;;;;;;;60.30;23.95;;;2.50;99.90;;;;;;5010694;28;20042;-33
2023/12/08 11:03:56;;;;;;;60.17;23.55;;;2.50;99.90;;;;;;5009605;28;20060;-33
2023/12/08 11:06:24;;;;;;;;;;;2.60;99.90;;;;;;5008184;28;20077;-33
2023/12/08 11:08:55;;;;;;;49.22;24.88;;;2.60;99.90;;;;;;5015303;28;19952;-51
2023/12/08 11:11:24;;;;;;;52.92;25.95;;;2.60;99.90;;;;;;5009654;28;20054;-38
2023/12/08 11:13:55;;;;;;;64.72;24.02;;;2.70;99.90;;;;;;5008094;28;20389;-33
2023/12/08 11:16:33;;;;;;;45.95;21.08;;;2.70;99.90;;;;;;5005139;28;20046;-33
2023/12/08 11:19:00;;;;;;;66.40;25.23;;;2.70;99.90;;;;;;5006416;28;20057;-33
2023/12/08 11:21:27;;;;;;;57.35;23.05;;;2.80;99.90;;;;;;5007948;28;20046;-33
2023/12/08 11:23:54;;;;;;;57.72;23.17;;;2.80;99.90;;;;;;5007847;28;20101;-33
2023/12/08 11:26:37;;;;;;;60.67;25.17;;;2.80;99.90;;;;;;5009702;28;20049;-33
2023/12/08 11:29:34;;;;;;;63.10;24.77;;;2.80;99.90;;;;;;5006146;28;20612;-33
2023/12/08 11:32:20;;;;;;;55.15;22.98;;;2.80;99.90;;;;;;5003211;28;20061;-33
2023/12/08 11:35:01;;;;;;;60.53;23.55;;;2.90;99.90;;;;;;5005663;28;20053;-35
2023/12/08 11:37:30;;;;;;;55.53;22.80;;;2.90;99.90;;;;;;5004773;28;20085;-34
2023/12/08 11:40:06;;;;;;;65.10;24.48;;;3.00;99.90;;;;;;5007830;28;20057;-33
2023/12/08 11:42:33;;;;;;;56.80;24.17;;;3.00;99.90;;;;;;5006334;28;20407;-33
2023/12/08 11:44:59;;;;;;;57.15;22.30;;;3.00;99.90;;;;;;5005960;28;20049;-33
2023/12/08 11:47:26;;;;;;;66.47;24.80;;;3.00;99.90;;;;;;5007262;28;20052;-33
2023/12/08 11:49:53;;;;;;;57.45;22.40;;;3.00;99.90;;;;;;5013697;28;20058;-34
2023/12/08 11:52:27;;;;;;;61.97;25.63;;;3.10;99.90;;;;;;5023139;28;20037;-33
2023/12/08 11:54:59;;;;;;;66.10;24.38;;;3.10;99.90;;;;;;5003976;28;20102;-33
2023/12/08 11:57:25;;;;;;;63.45;24.80;;;3.10;99.90;;;;;;5010285;28;20054;-33
2023/12/08 11:59:51;;;;;;;57.67;23.58;;;3.20;99.90;;;;;;4999917;28;20050;-33
2023/12/08 12:02:17;;;;;;;55.65;23.77;;;3.20;99.90;;;;;;5005955;28;20056;-33
2023/12/08 12:04:43;;;;;;;56.45;22.90;;;3.30;99.90;;;;;;5002390;28;20068;-33
2023/12/08 12:07:09;;;;;;;55.10;22.67;;;3.30;99.90;;;;;;5010642;28;20056;-33
2023/12/08 12:09:35;;;;;;;51.92;21.50;;;3.30;99.90;;;;;;5008743;28;20041;-33
2023/12/08 12:12:12;;;;;;;57.47;23.17;;;3.30;99.90;;;;;;5007722;28;20060;-34
2023/12/08 12:14:43;;;;;;;54.70;21.40;;;3.30;99.90;;;;;;5003715;28;20511;-33
2023/12/08 12:17:12;;;;;;;55.85;23.42;;;3.30;99.90;;;;;;5007840;28;20061;-33
2023/12/08 12:19:38;;;;;;;58.50;22.45;;;3.30;99.90;;;;;;5008434;28;20074;-33
2023/12/08 12:22:05;;;;;;;58.88;23.70;;;3.30;99.90;;;;;;5006656;28;20092;-33
2023/12/08 12:24:31;;;;;;;58.90;23.08;;;3.30;99.90;;;;;;5004774;28;21130;-33
2023/12/08 12:26:56;;;;;;;60.67;24.23;;;3.30;99.90;;;;;;5008179;28;20062;-40
2023/12/08 12:29:23;;;;;;;48.45;21.02;;;3.40;99.90;;;;;;5004649;28;20063;-33
2023/12/08 12:31:49;;;;;;;64.55;25.02;;;3.40;99.90;;;;;;5005950;28;20100;-32
2023/12/08 12:34:18;;;;;;;69.70;25.02;;;3.40;99.90;;;;;;5003768;28;20062;-32
2023/12/08 12:36:44;;;;;;;55.85;23.20;;;3.40;99.90;;;;;;5008028;28;20595;-33